sensor_id;sensor_type;location;lat;lon;timestamp;pressure;altitude;pressure_sealevel;temperature;humidity
31225;BME280;17847;31.524;74.366;2023-04-01T00:01:48;98473.72;;;17.68;89.25
31225;BME280;17847;31.524;74.366;2023-04-01T00:04:18;98475.19;;;17.59;89.23
31225;BME280;17847;31.524;74.366;2023-04-01T00:06:47;98472.41;;;17.71;89.19
31225;BME280;17847;31.524;74.366;2023-04-01T00:09:17;98473.09;;;17.61;89.12
31225;BME280;17847;31.524;74.366;2023-04-01T00:11:46;98474.22;;;17.65;90.22
31225;BME280;17847;31.524;74.366;2023-04-01T00:14:16;98472.34;;;17.82;90.48
31225;BME280;17847;31.524;74.366;2023-04-01T00:16:45;98479.88;;;17.85;89.89
31225;BME280;17847;31.524;74.366;2023-04-01T00:19:15;98477.03;;;17.75;90.19
31225;BME280;17847;31.524;74.366;2023-04-01T00:21:44;98487.22;;;17.73;90.41
31225;BME280;17847;31.524;74.366;2023-04-01T00:24:13;98481.69;;;17.63;90.21
31225;BME280;17847;31.524;74.366;2023-04-01T00:26:43;98486.06;;;17.69;90.32
31225;BME280;17847;31.524;74.366;2023-04-01T00:29:13;98492.06;;;17.76;90.53
31225;BME280;17847;31.524;74.366;2023-04-01T00:31:43;98481.19;;;17.66;90.27
31225;BME280;17847;31.524;74.366;2023-04-01T00:34:12;98487.19;;;17.57;90.73
31225;BME280;17847;31.524;74.366;2023-04-01T00:36:42;98487.03;;;17.63;91.41
31225;BME280;17847;31.524;74.366;2023-04-01T00:39:11;98489.47;;;17.65;90.93
31225;BME280;17847;31.524;74.366;2023-04-01T00:41:40;98492.38;;;17.63;90.91
31225;BME280;17847;31.524;74.366;2023-04-01T00:44:22;98491.13;;;17.66;90.66
31225;BME280;17847;31.524;74.366;2023-04-01T00:46:52;98495.38;;;17.67;91.15
31225;BME280;17847;31.524;74.366;2023-04-01T00:49:28;98501.16;;;17.75;90.90
31225;BME280;17847;31.524;74.366;2023-04-01T00:52:02;98501.75;;;17.61;90.34
31225;BME280;17847;31.524;74.366;2023-04-01T00:54:32;98506.81;;;17.62;90.47
31225;BME280;17847;31.524;74.366;2023-04-01T00:57:20;98507.00;;;17.72;90.50
31225;BME280;17847;31.524;74.366;2023-04-01T00:59:52;98497.97;;;17.62;90.73
31225;BME280;17847;31.524;74.366;2023-04-01T01:02:23;98512.22;;;17.79;91.16
31225;BME280;17847;31.524;74.366;2023-04-01T01:04:53;98505.31;;;17.83;90.55
31225;BME280;17847;31.524;74.366;2023-04-01T01:08:00;98520.97;;;17.91;90.40
31225;BME280;17847;31.524;74.366;2023-04-01T01:10:33;98515.22;;;17.82;89.75
31225;BME280;17847;31.524;74.366;2023-04-01T01:18:33;98519.19;;;17.80;89.54
31225;BME280;17847;31.524;74.366;2023-04-01T01:22:01;98528.75;;;17.59;89.81
31225;BME280;17847;31.524;74.366;2023-04-01T01:37:52;98547.09;;;17.67;89.52
31225;BME280;17847;31.524;74.366;2023-04-01T01:40:24;98545.00;;;17.69;90.04
31225;BME280;17847;31.524;74.366;2023-04-01T01:42:59;98551.00;;;17.76;90.27
31225;BME280;17847;31.524;74.366;2023-04-01T01:45:30;98553.13;;;17.91;90.39
31225;BME280;17847;31.524;74.366;2023-04-01T01:48:04;98552.81;;;17.87;89.50
31225;BME280;17847;31.524;74.366;2023-04-01T01:50:35;98552.13;;;17.80;89.56
31225;BME280;17847;31.524;74.366;2023-04-01T01:53:10;98551.31;;;17.80;89.79
31225;BME280;17847;31.524;74.366;2023-04-01T01:55:43;98562.63;;;17.99;90.30
31225;BME280;17847;31.524;74.366;2023-04-01T01:58:43;98565.94;;;17.89;89.56
31225;BME280;17847;31.524;74.366;2023-04-01T02:01:25;98569.03;;;17.98;89.65
31225;BME280;17847;31.524;74.366;2023-04-01T02:04:00;98572.94;;;17.90;89.26
31225;BME280;17847;31.524;74.366;2023-04-01T02:06:35;98576.94;;;17.87;88.54
31225;BME280;17847;31.524;74.366;2023-04-01T02:09:07;98583.81;;;17.83;89.15
31225;BME280;17847;31.524;74.366;2023-04-01T02:11:56;98583.16;;;17.76;89.44
31225;BME280;17847;31.524;74.366;2023-04-01T02:14:31;98578.94;;;17.80;89.25
31225;BME280;17847;31.524;74.366;2023-04-01T02:17:17;98581.72;;;18.02;89.45
31225;BME280;17847;31.524;74.366;2023-04-01T02:19:56;98586.84;;;18.04;89.07
31225;BME280;17847;31.524;74.366;2023-04-01T02:22:31;98584.47;;;17.90;88.71
31225;BME280;17847;31.524;74.366;2023-04-01T02:25:13;98595.38;;;18.01;88.91
31225;BME280;17847;31.524;74.366;2023-04-01T02:27:44;98590.78;;;17.84;88.93
31225;BME280;17847;31.524;74.366;2023-04-01T02:30:15;98594.53;;;17.83;89.20
31225;BME280;17847;31.524;74.366;2023-04-01T02:32:46;98594.97;;;17.92;88.65
31225;BME280;17847;31.524;74.366;2023-04-01T02:35:17;98594.38;;;17.90;89.26
31225;BME280;17847;31.524;74.366;2023-04-01T02:37:49;98596.25;;;18.06;89.46
31225;BME280;17847;31.524;74.366;2023-04-01T02:40:19;98608.03;;;18.05;89.05
31225;BME280;17847;31.524;74.366;2023-04-01T02:42:49;98604.28;;;18.06;89.23
31225;BME280;17847;31.524;74.366;2023-04-01T02:45:18;98612.59;;;18.05;88.39
31225;BME280;17847;31.524;74.366;2023-04-01T02:47:47;98606.72;;;18.24;88.79
31225;BME280;17847;31.524;74.366;2023-04-01T02:50:17;98610.88;;;18.32;87.57
31225;BME280;17847;31.524;74.366;2023-04-01T02:52:47;98614.13;;;18.34;87.82
31225;BME280;17847;31.524;74.366;2023-04-01T02:55:16;98615.03;;;18.39;88.14
31225;BME280;17847;31.524;74.366;2023-04-01T02:57:46;98626.69;;;18.50;88.15
31225;BME280;17847;31.524;74.366;2023-04-01T03:00:15;98626.66;;;18.45;87.21
31225;BME280;17847;31.524;74.366;2023-04-01T03:02:45;98618.41;;;18.68;87.73
31225;BME280;17847;31.524;74.366;2023-04-01T03:05:14;98629.38;;;18.50;86.11
31225;BME280;17847;31.524;74.366;2023-04-01T03:07:44;98627.38;;;18.40;86.49
31225;BME280;17847;31.524;74.366;2023-04-01T03:10:14;98615.94;;;18.62;86.92
31225;BME280;17847;31.524;74.366;2023-04-01T03:12:44;98624.28;;;18.65;86.07
31225;BME280;17847;31.524;74.366;2023-04-01T03:15:14;98623.66;;;18.58;87.12
31225;BME280;17847;31.524;74.366;2023-04-01T03:17:44;98633.22;;;18.71;86.69
31225;BME280;17847;31.524;74.366;2023-04-01T03:20:15;98627.19;;;18.80;86.36
31225;BME280;17847;31.524;74.366;2023-04-01T03:22:45;98633.53;;;18.74;85.46
31225;BME280;17847;31.524;74.366;2023-04-01T03:25:16;98636.72;;;18.71;85.73
31225;BME280;17847;31.524;74.366;2023-04-01T03:27:46;98633.31;;;18.76;85.45
31225;BME280;17847;31.524;74.366;2023-04-01T03:30:16;98628.25;;;18.79;85.29
31225;BME280;17847;31.524;74.366;2023-04-01T03:32:49;98638.25;;;18.84;85.53
31225;BME280;17847;31.524;74.366;2023-04-01T03:35:19;98639.22;;;18.78;84.52
31225;BME280;17847;31.524;74.366;2023-04-01T03:37:51;98637.59;;;18.77;85.16
31225;BME280;17847;31.524;74.366;2023-04-01T03:40:21;98643.94;;;18.88;85.06
31225;BME280;17847;31.524;74.366;2023-04-01T03:42:52;98641.78;;;19.06;84.58
31225;BME280;17847;31.524;74.366;2023-04-01T03:45:22;98640.59;;;19.19;84.98
31225;BME280;17847;31.524;74.366;2023-04-01T03:47:51;98649.69;;;19.18;84.16
31225;BME280;17847;31.524;74.366;2023-04-01T03:50:21;98656.75;;;19.02;83.41
31225;BME280;17847;31.524;74.366;2023-04-01T03:52:51;98653.06;;;19.30;83.99
31225;BME280;17847;31.524;74.366;2023-04-01T03:55:20;98662.97;;;19.08;83.39
31225;BME280;17847;31.524;74.366;2023-04-01T03:57:50;98658.56;;;19.18;83.59
31225;BME280;17847;31.524;74.366;2023-04-01T04:00:19;98668.06;;;19.26;83.36
31225;BME280;17847;31.524;74.366;2023-04-01T04:02:54;98663.63;;;19.37;83.82
31225;BME280;17847;31.524;74.366;2023-04-01T04:05:30;98665.50;;;19.36;82.37
31225;BME280;17847;31.524;74.366;2023-04-01T04:08:00;98667.13;;;19.37;82.72
31225;BME280;17847;31.524;74.366;2023-04-01T04:10:31;98675.41;;;19.52;83.24
31225;BME280;17847;31.524;74.366;2023-04-01T04:13:00;98674.84;;;19.50;82.06
31225;BME280;17847;31.524;74.366;2023-04-01T04:15:33;98678.78;;;19.43;81.86
31225;BME280;17847;31.524;74.366;2023-04-01T04:18:03;98675.72;;;19.56;82.58
31225;BME280;17847;31.524;74.366;2023-04-01T04:20:32;98685.06;;;19.75;81.31
31225;BME280;17847;31.524;74.366;2023-04-01T04:23:02;98678.25;;;19.89;80.97
31225;BME280;17847;31.524;74.366;2023-04-01T04:25:31;98682.03;;;19.93;80.53
31225;BME280;17847;31.524;74.366;2023-04-01T04:28:01;98690.34;;;20.13;81.41
31225;BME280;17847;31.524;74.366;2023-04-01T04:30:30;98686.78;;;20.08;79.73
31225;BME280;17847;31.524;74.366;2023-04-01T04:32:59;98689.00;;;20.16;81.34
31225;BME280;17847;31.524;74.366;2023-04-01T04:35:29;98690.47;;;20.29;81.47
31225;BME280;17847;31.524;74.366;2023-04-01T04:37:59;98691.94;;;20.14;79.60
31225;BME280;17847;31.524;74.366;2023-04-01T04:40:29;98692.34;;;20.28;79.58
31225;BME280;17847;31.524;74.366;2023-04-01T04:42:58;98696.47;;;20.36;78.82
31225;BME280;17847;31.524;74.366;2023-04-01T04:45:28;98703.03;;;20.50;79.11
31225;BME280;17847;31.524;74.366;2023-04-01T04:47:58;98698.22;;;20.25;77.87
31225;BME280;17847;31.524;74.366;2023-04-01T04:50:28;98696.91;;;20.28;78.80
31225;BME280;17847;31.524;74.366;2023-04-01T04:52:59;98699.19;;;20.14;79.15
31225;BME280;17847;31.524;74.366;2023-04-01T04:55:28;98706.88;;;20.59;81.41
31225;BME280;17847;31.524;74.366;2023-04-01T04:58:18;98699.66;;;20.65;79.89
31225;BME280;17847;31.524;74.366;2023-04-01T05:00:49;98707.06;;;20.47;78.54
31225;BME280;17847;31.524;74.366;2023-04-01T05:03:23;98704.66;;;20.51;78.06
31225;BME280;17847;31.524;74.366;2023-04-01T05:05:53;98704.94;;;20.86;77.85
31225;BME280;17847;31.524;74.366;2023-04-01T05:08:24;98709.91;;;21.04;76.86
31225;BME280;17847;31.524;74.366;2023-04-01T05:10:53;98710.72;;;21.05;74.97
31225;BME280;17847;31.524;74.366;2023-04-01T05:13:23;98709.59;;;20.96;75.21
31225;BME280;17847;31.524;74.366;2023-04-01T05:15:53;98704.50;;;21.46;75.94
31225;BME280;17847;31.524;74.366;2023-04-01T05:18:23;98705.19;;;21.79;75.44
31225;BME280;17847;31.524;74.366;2023-04-01T05:20:53;98707.00;;;21.58;73.51
31225;BME280;17847;31.524;74.366;2023-04-01T05:23:23;98708.78;;;21.94;75.02
31225;BME280;17847;31.524;74.366;2023-04-01T05:25:52;98705.56;;;21.40;72.88
31225;BME280;17847;31.524;74.366;2023-04-01T05:28:22;98705.69;;;21.71;74.10
31225;BME280;17847;31.524;74.366;2023-04-01T05:30:52;98704.28;;;21.53;73.41
31225;BME280;17847;31.524;74.366;2023-04-01T05:33:24;98707.03;;;21.73;75.22
31225;BME280;17847;31.524;74.366;2023-04-01T05:35:55;98706.22;;;21.68;72.73
31225;BME280;17847;31.524;74.366;2023-04-01T05:38:24;98701.16;;;21.76;73.51
31225;BME280;17847;31.524;74.366;2023-04-01T05:40:59;98699.88;;;22.04;72.44
31225;BME280;17847;31.524;74.366;2023-04-01T05:43:30;98692.94;;;22.33;71.43
31225;BME280;17847;31.524;74.366;2023-04-01T05:46:09;98688.84;;;22.31;72.41
31225;BME280;17847;31.524;74.366;2023-04-01T05:48:49;98691.00;;;22.19;70.72
31225;BME280;17847;31.524;74.366;2023-04-01T05:51:20;98689.66;;;22.06;71.02
31225;BME280;17847;31.524;74.366;2023-04-01T05:53:49;98692.91;;;22.08;72.19
31225;BME280;17847;31.524;74.366;2023-04-01T05:56:20;98697.38;;;21.87;72.23
31225;BME280;17847;31.524;74.366;2023-04-01T05:58:53;98692.50;;;21.74;72.90
31225;BME280;17847;31.524;74.366;2023-04-01T06:01:24;98683.75;;;21.42;72.08
31225;BME280;17847;31.524;74.366;2023-04-01T06:03:54;98688.13;;;21.06;74.02
31225;BME280;17847;31.524;74.366;2023-04-01T06:06:28;98681.97;;;21.11;74.41
31225;BME280;17847;31.524;74.366;2023-04-01T06:09:18;98690.22;;;21.41;74.99
31225;BME280;17847;31.524;74.366;2023-04-01T06:33:26;98672.09;;;21.26;74.07
31225;BME280;17847;31.524;74.366;2023-04-01T06:36:29;98669.44;;;21.36;74.65
31225;BME280;17847;31.524;74.366;2023-04-01T06:39:46;98665.69;;;21.42;73.52
31225;BME280;17847;31.524;74.366;2023-04-01T06:57:29;98660.34;;;21.52;77.43
31225;BME280;17847;31.524;74.366;2023-04-01T07:00:04;98659.72;;;22.28;75.66
31225;BME280;17847;31.524;74.366;2023-04-01T07:02:48;98647.84;;;22.64;73.99
31225;BME280;17847;31.524;74.366;2023-04-01T07:05:23;98655.69;;;22.40;72.01
31225;BME280;17847;31.524;74.366;2023-04-01T07:07:55;98650.03;;;22.52;73.76
31225;BME280;17847;31.524;74.366;2023-04-01T07:10:58;98652.72;;;22.77;73.04
31225;BME280;17847;31.524;74.366;2023-04-01T07:13:59;98644.88;;;22.81;72.74
31225;BME280;17847;31.524;74.366;2023-04-01T07:22:29;98644.06;;;22.35;74.05
31225;BME280;17847;31.524;74.366;2023-04-01T07:25:17;98641.63;;;21.98;75.00
31225;BME280;17847;31.524;74.366;2023-04-01T07:28:02;98646.81;;;21.42;75.78
31225;BME280;17847;31.524;74.366;2023-04-01T07:37:46;98638.56;;;21.69;75.64
31225;BME280;17847;31.524;74.366;2023-04-01T07:52:09;98619.81;;;22.30;74.20
31225;BME280;17847;31.524;74.366;2023-04-01T07:54:52;98614.94;;;22.47;73.29
31225;BME280;17847;31.524;74.366;2023-04-01T07:57:53;98614.66;;;22.74;72.41
31225;BME280;17847;31.524;74.366;2023-04-01T08:04:04;98616.22;;;23.00;71.68
31225;BME280;17847;31.524;74.366;2023-04-01T08:22:36;98586.59;;;22.14;74.24
31225;BME280;17847;31.524;74.366;2023-04-01T08:25:26;98585.50;;;22.56;73.72
31225;BME280;17847;31.524;74.366;2023-04-01T08:28:21;98584.44;;;22.47;71.33
31225;BME280;17847;31.524;74.366;2023-04-01T08:31:08;98583.34;;;22.37;72.99
31225;BME280;17847;31.524;74.366;2023-04-01T08:33:45;98578.22;;;22.36;72.60
31225;BME280;17847;31.524;74.366;2023-04-01T08:39:16;98577.94;;;22.73;71.67
31225;BME280;17847;31.524;74.366;2023-04-01T08:42:14;98569.47;;;23.05;70.46
31225;BME280;17847;31.524;74.366;2023-04-01T08:48:41;98548.13;;;22.98;70.57
31225;BME280;17847;31.524;74.366;2023-04-01T08:54:26;98543.81;;;23.56;68.86
31225;BME280;17847;31.524;74.366;2023-04-01T09:06:12;98539.03;;;22.79;70.84
31225;BME280;17847;31.524;74.366;2023-04-01T09:14:25;98517.13;;;22.86;69.38
31225;BME280;17847;31.524;74.366;2023-04-01T09:17:53;98508.88;;;22.36;70.91
31225;BME280;17847;31.524;74.366;2023-04-01T09:31:44;98501.91;;;22.25;69.85
31225;BME280;17847;31.524;74.366;2023-04-01T09:37:53;98493.00;;;22.20;71.07
31225;BME280;17847;31.524;74.366;2023-04-01T09:44:02;98477.00;;;22.49;69.84
31225;BME280;17847;31.524;74.366;2023-04-01T09:49:26;98470.50;;;22.55;69.84
31225;BME280;17847;31.524;74.366;2023-04-01T10:15:20;98432.16;;;23.12;68.15
31225;BME280;17847;31.524;74.366;2023-04-01T10:24:00;98435.34;;;22.75;68.22
31225;BME280;17847;31.524;74.366;2023-04-01T10:26:59;98439.81;;;22.30;67.43
31225;BME280;17847;31.524;74.366;2023-04-01T11:00:08;98399.53;;;22.44;68.33
31225;BME280;17847;31.524;74.366;2023-04-01T11:09:05;98411.50;;;22.28;68.28
31225;BME280;17847;31.524;74.366;2023-04-01T11:12:25;98403.16;;;22.14;69.24
31225;BME280;17847;31.524;74.366;2023-04-01T11:21:44;98400.53;;;21.94;70.06
31225;BME280;17847;31.524;74.366;2023-04-01T11:32:53;98408.59;;;21.69;71.27
31225;BME280;17847;31.524;74.366;2023-04-01T11:35:34;98408.91;;;21.52;70.95
31225;BME280;17847;31.524;74.366;2023-04-01T11:50:38;98403.25;;;21.48;71.05
31225;BME280;17847;31.524;74.366;2023-04-01T11:53:26;98407.84;;;21.28;70.30
31225;BME280;17847;31.524;74.366;2023-04-01T12:01:25;98407.28;;;21.31;70.10
31225;BME280;17847;31.524;74.366;2023-04-01T12:04:17;98409.69;;;21.78;70.73
31225;BME280;17847;31.524;74.366;2023-04-01T12:18:22;98407.53;;;21.90;68.82
31225;BME280;17847;31.524;74.366;2023-04-01T12:21:05;98410.81;;;21.41;69.02
31225;BME280;17847;31.524;74.366;2023-04-01T12:35:21;98420.50;;;21.63;70.17
31225;BME280;17847;31.524;74.366;2023-04-01T12:43:34;98431.25;;;21.17;68.93
31225;BME280;17847;31.524;74.366;2023-04-01T12:49:25;98436.38;;;21.44;68.29
31225;BME280;17847;31.524;74.366;2023-04-01T13:06:36;98443.00;;;20.91;68.19
31225;BME280;17847;31.524;74.366;2023-04-01T13:09:18;98446.47;;;20.81;69.84
31225;BME280;17847;31.524;74.366;2023-04-01T13:18:09;98445.16;;;20.94;69.78
31225;BME280;17847;31.524;74.366;2023-04-01T13:21:05;98452.66;;;20.77;70.13
31225;BME280;17847;31.524;74.366;2023-04-01T13:28:58;98461.25;;;20.69;70.33
31225;BME280;17847;31.524;74.366;2023-04-01T13:42:23;98460.66;;;20.14;72.70
31225;BME280;17847;31.524;74.366;2023-04-01T13:45:24;98465.09;;;20.88;70.17
31225;BME280;17847;31.524;74.366;2023-04-01T13:50:52;98456.75;;;20.84;70.91
31225;BME280;17847;31.524;74.366;2023-04-01T13:59:50;98467.72;;;20.73;69.82
31225;BME280;17847;31.524;74.366;2023-04-01T14:08:26;98478.38;;;21.25;68.18
31225;BME280;17847;31.524;74.366;2023-04-01T14:11:16;98474.63;;;20.53;69.32
31225;BME280;17847;31.524;74.366;2023-04-01T14:13:56;98479.69;;;21.02;68.59
31225;BME280;17847;31.524;74.366;2023-04-01T14:22:27;98490.31;;;20.67;72.09
31225;BME280;17847;31.524;74.366;2023-04-01T14:30:51;98482.94;;;19.41;72.45
31225;BME280;17847;31.524;74.366;2023-04-01T14:33:43;98491.00;;;19.68;74.76
31225;BME280;17847;31.524;74.366;2023-04-01T14:39:33;98492.56;;;20.01;72.45
31225;BME280;17847;31.524;74.366;2023-04-01T14:44:57;98494.59;;;19.84;71.67
31225;BME280;17847;31.524;74.366;2023-04-01T14:47:48;98490.84;;;19.26;73.43
31225;BME280;17847;31.524;74.366;2023-04-01T14:50:22;98494.59;;;19.25;74.90
31225;BME280;17847;31.524;74.366;2023-04-01T14:55:50;98495.91;;;20.13;74.38
31225;BME280;17847;31.524;74.366;2023-04-01T14:58:23;98492.66;;;19.47;73.18
31225;BME280;17847;31.524;74.366;2023-04-01T15:01:12;98490.41;;;19.39;75.42
31225;BME280;17847;31.524;74.366;2023-04-01T15:03:57;98488.78;;;19.33;74.92
31225;BME280;17847;31.524;74.366;2023-04-01T15:06:56;98509.69;;;19.31;75.13
31225;BME280;17847;31.524;74.366;2023-04-01T15:18:38;98521.28;;;18.88;77.07
31225;BME280;17847;31.524;74.366;2023-04-01T15:24:19;98521.00;;;18.84;78.23
31225;BME280;17847;31.524;74.366;2023-04-01T15:27:34;98522.41;;;18.92;78.66
31225;BME280;17847;31.524;74.366;2023-04-01T15:30:56;98524.91;;;18.77;78.33
31225;BME280;17847;31.524;74.366;2023-04-01T15:36:05;98539.94;;;18.56;79.23
31225;BME280;17847;31.524;74.366;2023-04-01T15:43:52;98530.56;;;18.59;79.50
31225;BME280;17847;31.524;74.366;2023-04-01T15:49:41;98540.44;;;18.53;80.77
31225;BME280;17847;31.524;74.366;2023-04-01T15:52:49;98551.47;;;18.40;80.23
31225;BME280;17847;31.524;74.366;2023-04-01T15:55:31;98551.63;;;18.33;80.59
31225;BME280;17847;31.524;74.366;2023-04-01T16:04:09;98551.81;;;18.27;80.87
31225;BME280;17847;31.524;74.366;2023-04-01T16:09:56;98567.19;;;18.31;82.32
31225;BME280;17847;31.524;74.366;2023-04-01T16:21:07;98589.50;;;18.20;82.22
31225;BME280;17847;31.524;74.366;2023-04-01T16:24:20;98588.06;;;18.13;82.62
31225;BME280;17847;31.524;74.366;2023-04-01T16:35:41;98571.56;;;17.87;83.85
31225;BME280;17847;31.524;74.366;2023-04-01T16:38:32;98567.91;;;17.93;84.28
31225;BME280;17847;31.524;74.366;2023-04-01T16:41:34;98561.91;;;17.86;83.87
31225;BME280;17847;31.524;74.366;2023-04-01T16:44:26;98564.25;;;17.83;84.08
31225;BME280;17847;31.524;74.366;2023-04-01T16:47:10;98569.66;;;17.88;83.99
31225;BME280;17847;31.524;74.366;2023-04-01T16:55:50;98586.00;;;17.86;83.61
31225;BME280;17847;31.524;74.366;2023-04-01T16:58:36;98586.00;;;17.86;83.85
31225;BME280;17847;31.524;74.366;2023-04-01T17:01:16;98582.44;;;17.81;83.91
31225;BME280;17847;31.524;74.366;2023-04-01T17:04:07;98583.25;;;17.81;84.09
31225;BME280;17847;31.524;74.366;2023-04-01T17:10:07;98596.44;;;17.71;84.10
31225;BME280;17847;31.524;74.366;2023-04-01T17:33:11;98576.28;;;17.52;83.74
31225;BME280;17847;31.524;74.366;2023-04-01T17:35:39;98569.03;;;17.52;84.33
31225;BME280;17847;31.524;74.366;2023-04-01T17:42:04;98576.56;;;17.67;84.46
31225;BME280;17847;31.524;74.366;2023-04-01T17:47:36;98581.34;;;17.65;83.81
31225;BME280;17847;31.524;74.366;2023-04-01T17:50:08;98583.94;;;17.60;83.25
31225;BME280;17847;31.524;74.366;2023-04-01T17:52:58;98584.38;;;17.57;84.13
31225;BME280;17847;31.524;74.366;2023-04-01T18:04:34;98588.75;;;17.46;83.93
31225;BME280;17847;31.524;74.366;2023-04-01T18:16:17;98591.13;;;17.31;85.16
31225;BME280;17847;31.524;74.366;2023-04-01T18:19:03;98596.13;;;17.28;85.16
31225;BME280;17847;31.524;74.366;2023-04-01T18:27:07;98587.81;;;17.41;85.36
31225;BME280;17847;31.524;74.366;2023-04-01T18:39:00;98593.78;;;17.31;84.81
31225;BME280;17847;31.524;74.366;2023-04-01T18:59:01;98612.50;;;17.03;85.89
31225;BME280;17847;31.524;74.366;2023-04-01T19:10:31;98602.25;;;17.00;85.97
31225;BME280;17847;31.524;74.366;2023-04-01T19:16:28;98592.25;;;16.95;86.38
31225;BME280;17847;31.524;74.366;2023-04-01T19:19:20;98600.88;;;16.97;86.17
31225;BME280;17847;31.524;74.366;2023-04-01T19:22:03;98599.84;;;16.87;86.12
31225;BME280;17847;31.524;74.366;2023-04-01T19:27:34;98611.34;;;16.99;86.20
31225;BME280;17847;31.524;74.366;2023-04-01T19:31:24;98603.34;;;16.87;86.05
31225;BME280;17847;31.524;74.366;2023-04-01T19:33:33;98605.91;;;16.82;86.09
31225;BME280;17847;31.524;74.366;2023-04-01T19:39:52;98614.50;;;16.84;86.75
31225;BME280;17847;31.524;74.366;2023-04-01T19:42:44;98617.19;;;16.84;86.41
31225;BME280;17847;31.524;74.366;2023-04-01T19:57:05;98634.16;;;16.78;86.21
31225;BME280;17847;31.524;74.366;2023-04-01T19:59:48;98633.00;;;16.86;86.34
31225;BME280;17847;31.524;74.366;2023-04-01T20:05:42;98629.97;;;16.82;86.28
31225;BME280;17847;31.524;74.366;2023-04-01T20:17:01;98626.38;;;16.77;86.81
31225;BME280;17847;31.524;74.366;2023-04-01T20:31:09;98615.81;;;16.58;87.39
31225;BME280;17847;31.524;74.366;2023-04-01T20:34:04;98614.25;;;16.51;87.43
31225;BME280;17847;31.524;74.366;2023-04-01T20:36:54;98610.09;;;16.55;87.59
31225;BME280;17847;31.524;74.366;2023-04-01T20:39:48;98611.22;;;16.47;87.57
31225;BME280;17847;31.524;74.366;2023-04-01T21:08:15;98569.97;;;16.43;88.32
31225;BME280;17847;31.524;74.366;2023-04-01T21:13:49;98572.31;;;16.40;88.55
31225;BME280;17847;31.524;74.366;2023-04-01T21:16:47;98564.75;;;16.37;88.17
31225;BME280;17847;31.524;74.366;2023-04-01T21:19:46;98561.63;;;16.40;88.27
31225;BME280;17847;31.524;74.366;2023-04-01T21:31:42;98545.59;;;16.40;88.94
31225;BME280;17847;31.524;74.366;2023-04-01T22:05:16;98508.41;;;16.27;89.32
31225;BME280;17847;31.524;74.366;2023-04-01T22:08:24;98506.78;;;16.26;89.69
31225;BME280;17847;31.524;74.366;2023-04-01T22:22:04;98521.44;;;16.23;89.23
31225;BME280;17847;31.524;74.366;2023-04-01T22:24:58;98505.72;;;16.50;89.40
31225;BME280;17847;31.524;74.366;2023-04-01T22:27:50;98500.63;;;16.37;88.84
31225;BME280;17847;31.524;74.366;2023-04-01T22:30:27;98505.97;;;16.37;88.94
31225;BME280;17847;31.524;74.366;2023-04-01T22:33:20;98508.28;;;16.45;88.81
31225;BME280;17847;31.524;74.366;2023-04-01T22:41:33;98482.81;;;16.42;88.86
31225;BME280;17847;31.524;74.366;2023-04-01T22:44:05;98489.09;;;16.48;88.40
31225;BME280;17847;31.524;74.366;2023-04-01T22:50:26;98476.00;;;16.23;88.95
31225;BME280;17847;31.524;74.366;2023-04-01T22:56:00;98470.66;;;16.11;89.52
31225;BME280;17847;31.524;74.366;2023-04-01T22:58:38;98470.66;;;16.11;89.34
31225;BME280;17847;31.524;74.366;2023-04-01T23:01:21;98466.94;;;16.01;89.46
31225;BME280;17847;31.524;74.366;2023-04-01T23:03:55;98479.28;;;16.02;89.78
31225;BME280;17847;31.524;74.366;2023-04-01T23:06:28;98477.84;;;16.11;90.48
31225;BME280;17847;31.524;74.366;2023-04-01T23:09:19;98480.63;;;16.16;89.85
31225;BME280;17847;31.524;74.366;2023-04-01T23:23:11;98478.22;;;16.14;90.08
31225;BME280;17847;31.524;74.366;2023-04-01T23:28:31;98476.47;;;16.08;89.94
31225;BME280;17847;31.524;74.366;2023-04-01T23:31:02;98474.03;;;16.18;90.20
31225;BME280;17847;31.524;74.366;2023-04-01T23:33:32;98471.09;;;16.20;90.03
31225;BME280;17847;31.524;74.366;2023-04-01T23:36:13;98472.28;;;16.12;89.46
31225;BME280;17847;31.524;74.366;2023-04-01T23:39:11;98476.47;;;15.97;89.98
31225;BME280;17847;31.524;74.366;2023-04-01T23:41:48;98486.78;;;16.16;91.37
31225;BME280;17847;31.524;74.366;2023-04-01T23:44:20;98487.38;;;16.18;90.24
31225;BME280;17847;31.524;74.366;2023-04-01T23:46:51;98482.16;;;16.12;89.49
31225;BME280;17847;31.524;74.366;2023-04-01T23:49:35;98487.50;;;16.00;89.55
31225;BME280;17847;31.524;74.366;2023-04-01T23:55:03;98490.28;;;15.94;90.23
31225;BME280;17847;31.524;74.366;2023-04-01T23:57:35;98495.28;;;16.02;90.08
